Time;durP1;ratioP1;P1;durP2;ratioP2;P2;SDS_P1;SDS_P2;PMS_P1;PMS_P2;Temp;Humidity;BMP_temperature;BMP_pressure;BME280_temperature;BME280_humidity;BME280_pressure;Samples;Min_cycle;Max_cycle;Signal;HPM_P1;HPM_P2
2020/12/20 00:59:01;;;;;;;23.62;13.13;;;;;;;0.14;100.00;102284.66;1640843;87;21555;-90
2020/12/20 01:01:30;;;;;;;24.80;13.68;;;;;;;0.12;100.00;102284.67;1613254;88;21590;-90
2020/12/20 01:03:59;;;;;;;32.10;17.98;;;;;;;0.10;100.00;102281.70;1618345;87;21190;-90
2020/12/20 01:06:26;;;;;;;27.30;14.95;;;;;;;0.06;100.00;102283.84;1615429;87;21866;-90
2020/12/20 01:08:56;;;;;;;23.55;14.28;;;;;;;0.05;100.00;102283.00;1593064;88;21286;-90
2020/12/20 01:11:38;;;;;;;27.45;15.40;;;;;;;0.05;100.00;102288.13;1586183;87;21670;-90
2020/12/20 01:14:14;;;;;;;24.18;14.73;;;;;;;0.03;100.00;102292.39;1567381;89;21253;-90
2020/12/20 01:16:44;;;;;;;30.43;16.87;;;;;;;0.05;100.00;102294.94;1583552;87;21290;-89
2020/12/20 01:19:12;;;;;;;25.55;15.50;;;;;;;0.04;100.00;102294.10;1588526;87;21251;-90
2020/12/20 01:21:40;;;;;;;21.17;12.73;;;;;;;0.06;100.00;102300.48;1584162;88;21215;-90
2020/12/20 01:24:08;;;;;;;23.50;14.35;;;;;;;0.06;100.00;102296.23;1586554;89;21654;-90
2020/12/20 01:26:36;;;;;;;21.40;12.73;;;;;;;0.07;100.00;102295.38;1594038;87;21171;-89
2020/12/20 01:29:06;;;;;;;24.92;15.43;;;;;;;0.03;100.00;102301.36;1597423;87;21188;-90
2020/12/20 01:31:34;;;;;;;21.35;13.30;;;;;;;-0.01;100.00;102299.69;1590313;89;21227;-89
2020/12/20 07:16:18;;;;;;;44.03;22.90;;;;;;;0.37;100.00;102479.34;1769495;79;21068;-89
2020/12/20 07:19:10;;;;;;;40.35;21.85;;;;;;;0.36;100.00;102484.03;1757887;79;21538;-89
2020/12/20 07:22:13;;;;;;;47.33;24.45;;;;;;;0.38;100.00;102486.17;1741460;80;21996;-89
2020/12/20 07:24:41;;;;;;;48.25;23.92;;;;;;;0.40;100.00;102486.16;1763287;80;21160;-89
2020/12/20 07:27:11;;;;;;;51.40;25.52;;;;;;;0.44;100.00;102487.87;1772466;79;21348;-89
2020/12/20 07:34:07;;;;;;;46.50;24.57;;;;;;;0.49;100.00;102495.11;1780933;77;21504;-90
2020/12/20 07:36:38;;;;;;;50.73;24.92;;;;;;;0.53;100.00;102482.70;1730983;80;21287;-88
2020/12/20 07:39:07;;;;;;;38.58;21.17;;;;;;;0.58;100.00;102488.68;1803667;77;21178;-89
2020/12/20 07:41:35;;;;;;;44.30;23.52;;;;;;;0.62;100.00;102488.24;1802865;78;21864;-88
2020/12/20 07:47:54;;;;;;;50.03;23.87;;;;;;;0.70;100.00;102492.05;1791787;78;21064;-89
2020/12/20 07:50:25;;;;;;;45.48;23.57;;;;;;;0.74;100.00;102497.60;1776616;78;21588;-90
2020/12/20 07:53:25;;;;;;;46.25;23.80;;;;;;;0.72;100.00;102495.02;1795033;77;21068;-91
2020/12/20 07:55:53;;;;;;;45.95;23.42;;;;;;;0.74;100.00;102493.76;1798914;78;22309;-89
2020/12/20 07:58:21;;;;;;;42.25;23.73;;;;;;;0.77;100.00;102496.29;1758686;79;21295;-89
2020/12/20 08:00:49;;;;;;;38.48;21.80;;;;;;;0.82;100.00;102485.60;1728212;80;21143;-90
2020/12/20 08:03:30;;;;;;;44.80;23.85;;;;;;;0.87;100.00;102480.01;1742787;79;21274;-89
2020/12/20 08:06:09;;;;;;;51.23;24.57;;;;;;;0.96;100.00;102482.11;1741674;81;21227;-89
2020/12/20 08:08:39;;;;;;;46.10;23.45;;;;;;;1.05;100.00;102483.35;1736920;80;21151;-89
2020/12/20 08:11:28;;;;;;;45.43;23.83;;;;;;;1.09;100.00;102474.77;1739981;80;21203;-88
2020/12/20 08:14:15;;;;;;;41.35;23.02;;;;;;;1.13;100.00;102476.47;1778690;79;21536;-90
2020/12/20 08:21:05;;;;;;;42.93;23.77;;;;;;;1.16;100.00;102480.72;1735278;79;21244;-90
2020/12/20 08:56:09;;;;;;;69.40;32.23;;;;;;;1.09;100.00;102467.06;1739055;81;21121;-89
2020/12/20 08:58:56;;;;;;;51.50;24.77;;;;;;;1.10;100.00;102473.48;1725175;82;21072;-90
2020/12/20 09:05:14;;;;;;;41.18;21.90;;;;;;;1.08;100.00;102466.67;1686173;84;21124;-90
2020/12/20 09:07:46;;;;;;;39.30;21.35;;;;;;;1.07;100.00;102461.11;1739897;81;21574;-90
2020/12/20 09:10:41;;;;;;;36.85;20.30;;;;;;;1.07;100.00;102457.27;1709060;82;21150;-90
2020/12/20 09:13:09;;;;;;;37.73;21.15;;;;;;;1.11;100.00;102462.78;1734175;82;21142;-90
2020/12/20 09:23:22;;;;;;;39.92;20.82;;;;;;;1.17;100.00;102473.00;1734280;82;21119;-89
2020/12/20 09:26:25;;;;;;;36.23;20.25;;;;;;;1.15;100.00;102469.62;1723933;81;21087;-91
2020/12/20 09:33:49;;;;;;;31.48;18.57;;;;;;;1.16;100.00;102470.45;1742318;81;21075;-93
2020/12/20 09:40:10;;;;;;;32.78;18.02;;;;;;;1.16;100.00;102462.76;1742687;81;21540;-92
2020/12/20 09:43:19;;;;;;;35.23;18.60;;;;;;;1.13;100.00;102463.63;1742848;81;21131;-92
2020/12/20 09:45:47;;;;;;;35.10;18.27;;;;;;;1.09;100.00;102463.22;1739388;81;21123;-91
2020/12/20 09:48:28;;;;;;;35.15;18.82;;;;;;;1.07;100.00;102456.81;1709543;82;21139;-91
2020/12/20 09:50:56;;;;;;;34.67;19.17;;;;;;;1.10;100.00;102454.66;1737257;81;21367;-88
2020/12/20 09:53:52;;;;;;;36.28;22.37;;;;;;;1.14;100.00;102451.23;1727014;80;21539;-90
2020/12/20 09:56:20;;;;;;;35.03;19.95;;;;;;;1.19;100.00;102448.19;1720972;80;21120;-89
2020/12/20 09:58:48;;;;;;;34.13;18.37;;;;;;;1.26;100.00;102452.86;1733640;82;21047;-88
2020/12/20 10:01:22;;;;;;;31.23;16.87;;;;;;;1.30;100.00;102445.55;1688952;83;21179;-89
2020/12/20 10:03:50;;;;;;;33.83;18.45;;;;;;;1.32;100.00;102442.55;1701338;82;21577;-89
2020/12/20 10:06:18;;;;;;;33.80;19.37;;;;;;;1.30;100.00;102443.42;1743083;80;21057;-89
2020/12/20 10:08:47;;;;;;;30.75;17.00;;;;;;;1.26;100.00;102438.75;1707800;81;21143;-89
2020/12/20 10:11:19;;;;;;;29.55;15.50;;;;;;;1.24;100.00;102438.73;1683516;83;21253;-89
2020/12/20 10:13:48;;;;;;;33.33;18.70;;;;;;;1.24;100.00;102440.47;1738177;81;21495;-89
2020/12/20 10:16:18;;;;;;;34.73;18.12;;;;;;;1.23;100.00;102431.92;1737200;81;21242;-89
2020/12/20 10:18:46;;;;;;;29.25;17.00;;;;;;;1.23;100.00;102430.64;1712157;82;21155;-89
2020/12/20 10:21:15;;;;;;;31.05;18.30;;;;;;;1.27;100.00;102430.19;1678536;85;21221;-91
2020/12/20 10:23:45;;;;;;;37.37;18.83;;;;;;;1.27;100.00;102430.19;1690117;82;21628;-88
2020/12/20 10:26:45;;;;;;;36.15;20.37;;;;;;;1.24;100.00;102422.05;1710332;81;21196;-89
2020/12/20 10:29:17;;;;;;;43.60;22.77;;;;;;;1.19;100.00;102422.53;1705345;83;21359;-89
2020/12/20 10:31:46;;;;;;;42.75;21.73;;;;;;;1.18;100.00;102428.96;1713931;83;21134;-89
2020/12/20 10:34:16;;;;;;;38.73;21.52;;;;;;;1.19;100.00;102429.39;1712556;83;21214;-89
2020/12/20 10:40:11;;;;;;;40.73;21.55;;;;;;;1.18;100.00;102425.95;1711095;83;21407;-88
2020/12/20 10:42:39;;;;;;;30.97;17.85;;;;;;;1.22;100.00;102431.91;1698679;83;21205;-88
2020/12/20 10:45:07;;;;;;;29.40;17.12;;;;;;;1.27;100.00;102434.04;1679335;84;21174;-88
2020/12/20 10:47:41;;;;;;;35.60;19.37;;;;;;;1.31;100.00;102431.02;1707248;83;21235;-89
2020/12/20 10:50:11;;;;;;;37.95;20.68;;;;;;;1.32;100.00;102439.98;1713978;83;21281;-89
2020/12/20 10:52:48;;;;;;;31.77;18.42;;;;;;;1.29;100.00;102437.87;1715432;83;21118;-89
2020/12/20 10:55:33;;;;;;;38.92;20.45;;;;;;;1.27;100.00;102431.47;1706756;83;21378;-89
2020/12/20 10:58:43;;;;;;;37.73;19.62;;;;;;;1.25;100.00;102431.46;1712511;83;21251;-88
2020/12/20 11:01:18;;;;;;;34.13;19.98;;;;;;;1.24;100.00;102432.77;1712564;83;21162;-88
2020/12/20 11:03:51;;;;;;;40.80;22.07;;;;;;;1.16;100.00;102437.94;1704564;83;21222;-87
2020/12/20 11:06:30;;;;;;;40.85;22.75;;;;;;;1.07;100.00;102441.42;1714877;82;21145;-87
2020/12/20 11:08:58;;;;;;;37.00;21.48;;;;;;;1.00;100.00;102438.47;1707717;83;21197;-89
2020/12/20 11:11:31;;;;;;;41.00;21.95;;;;;;;0.96;100.00;102436.80;1709966;81;21634;-88
2020/12/20 11:14:01;;;;;;;43.28;23.50;;;;;;;0.96;100.00;102432.95;1707963;83;21115;-87
2020/12/20 11:16:29;;;;;;;45.83;23.87;;;;;;;0.94;100.00;102432.94;1712005;82;21205;-88
2020/12/20 11:18:59;;;;;;;45.25;24.40;;;;;;;0.92;100.00;102432.09;1676599;84;21583;-88
2020/12/20 11:21:27;;;;;;;41.55;22.77;;;;;;;0.89;100.00;102434.69;1664586;84;21189;-88
2020/12/20 11:23:54;;;;;;;43.23;24.30;;;;;;;0.87;100.00;102432.55;1708897;83;21483;-88
2020/12/20 11:26:24;;;;;;;45.58;24.18;;;;;;;0.86;100.00;102436.42;1679210;84;21137;-87
2020/12/20 11:28:53;;;;;;;46.75;24.95;;;;;;;0.85;100.00;102438.11;1705394;83;21141;-89
2020/12/20 11:31:24;;;;;;;46.83;25.52;;;;;;;0.85;100.00;102438.11;1713966;83;21854;-90
2020/12/20 11:33:52;;;;;;;42.05;23.55;;;;;;;0.83;100.00;102437.30;1711556;82;21199;-89
2020/12/20 11:36:23;;;;;;;49.80;28.02;;;;;;;0.80;100.00;102447.55;1726130;82;21159;-91
2020/12/20 11:38:52;;;;;;;45.90;24.80;;;;;;;0.73;100.00;102444.60;1738649;81;21131;-89
2020/12/20 11:41:28;;;;;;;40.05;23.40;;;;;;;0.72;100.00;102445.45;1728525;81;21151;-89
2020/12/20 11:43:56;;;;;;;45.83;24.32;;;;;;;0.74;100.00;102445.03;1732783;82;21231;-88
2020/12/20 11:46:24;;;;;;;44.40;24.90;;;;;;;0.75;100.00;102457.84;1730789;81;21360;-88
2020/12/20 11:48:53;;;;;;;44.30;24.05;;;;;;;0.74;100.00;102457.41;1738900;80;21194;-88
2020/12/20 11:51:24;;;;;;;51.00;28.70;;;;;;;0.73;100.00;102458.70;1741570;81;21171;-90
2020/12/20 11:53:52;;;;;;;48.73;27.20;;;;;;;0.72;100.00;102465.53;1723920;81;21622;-88
2020/12/20 11:56:21;;;;;;;48.28;26.35;;;;;;;0.70;100.00;102468.55;1735976;81;21118;-88
2020/12/20 11:58:49;;;;;;;44.73;25.55;;;;;;;0.70;100.00;102470.25;1733359;81;21206;-88
2020/12/20 12:01:26;;;;;;;50.63;26.37;;;;;;;0.67;100.00;102472.84;1735899;81;21143;-88
2020/12/20 12:03:54;;;;;;;46.75;23.27;;;;;;;0.66;100.00;102474.53;1729133;82;21083;-88
2020/12/20 12:06:48;;;;;;;50.80;26.60;;;;;;;0.63;100.00;102473.28;1739970;82;21064;-88
2020/12/20 12:09:30;;;;;;;49.58;25.82;;;;;;;0.59;100.00;102470.30;1735844;81;21157;-88
2020/12/20 12:11:58;;;;;;;47.73;26.15;;;;;;;0.54;100.00;102478.00;1741042;80;21367;-88
2020/12/20 12:14:54;;;;;;;46.25;26.37;;;;;;;0.52;100.00;102477.58;1714330;83;21175;-90
2020/12/20 12:17:22;;;;;;;53.65;26.57;;;;;;;0.50;100.00;102478.01;1693671;82;21148;-89
2020/12/20 12:19:52;;;;;;;48.35;26.15;;;;;;;0.48;100.00;102478.02;1688520;83;21105;-88
2020/12/20 12:22:21;;;;;;;45.50;26.65;;;;;;;0.45;100.00;102484.02;1679837;83;21219;-89
2020/12/20 12:24:49;;;;;;;48.23;26.50;;;;;;;0.45;100.00;102489.55;1736843;81;21467;-89
2020/12/20 12:27:17;;;;;;;50.38;26.73;;;;;;;0.44;100.00;102486.59;1710615;82;21484;-89
2020/12/20 12:29:45;;;;;;;49.70;27.15;;;;;;;0.43;100.00;102495.14;1737506;81;21154;-89
2020/12/20 12:32:13;;;;;;;47.33;25.82;;;;;;;0.39;100.00;102493.42;1739762;81;21289;-89
2020/12/20 12:34:41;;;;;;;50.23;26.57;;;;;;;0.37;100.00;102495.13;1713836;82;21184;-88
2020/12/20 12:37:09;;;;;;;46.35;24.70;;;;;;;0.33;100.00;102499.41;1737582;81;21573;-89
2020/12/20 12:39:38;;;;;;;47.08;25.25;;;;;;;0.30;100.00;102495.59;1732262;81;21216;-89
2020/12/20 12:42:06;;;;;;;49.13;25.80;;;;;;;0.29;100.00;102499.00;1723639;81;21131;-89
2020/12/20 12:44:34;;;;;;;45.23;25.80;;;;;;;0.27;100.00;102501.98;1726181;82;21259;-89
2020/12/20 12:47:02;;;;;;;45.70;25.20;;;;;;;0.23;100.00;102502.86;1744344;81;21581;-89
2020/12/20 12:49:30;;;;;;;46.45;25.50;;;;;;;0.23;100.00;102502.42;1740240;81;21733;-89
2020/12/20 12:51:58;;;;;;;40.88;23.30;;;;;;;0.24;100.00;102504.13;1690308;83;21235;-89
2020/12/20 12:54:26;;;;;;;53.42;25.25;;;;;;;0.25;100.00;102510.10;1725289;82;21216;-89
2020/12/20 12:57:00;;;;;;;48.33;25.15;;;;;;;0.25;100.00;102507.13;1722488;82;21188;-90
2020/12/20 12:59:37;;;;;;;47.85;25.25;;;;;;;0.23;100.00;102511.39;1731077;81;21226;-89
2020/12/20 13:02:06;;;;;;;48.15;26.30;;;;;;;0.23;100.00;102513.12;1721549;82;21372;-89
2020/12/20 13:04:35;;;;;;;45.95;25.50;;;;;;;0.21;100.00;102516.94;1730103;80;21170;-89
2020/12/20 13:07:32;;;;;;;48.33;26.82;;;;;;;0.21;100.00;102516.09;1725707;82;21108;-90
2020/12/20 13:10:00;;;;;;;51.45;27.52;;;;;;;0.19;100.00;102521.23;1727751;82;21523;-90
2020/12/20 13:12:29;;;;;;;53.20;30.68;;;;;;;0.17;100.00;102515.25;1724860;81;21041;-90
2020/12/20 13:14:59;;;;;;;64.25;34.75;;;;;;;0.18;100.00;102523.37;1723223;82;21255;-90
2020/12/20 13:17:38;;;;;;;54.73;31.05;;;;;;;0.19;100.00;102527.64;1735511;82;21274;-89
2020/12/20 13:20:16;;;;;;;50.28;27.55;;;;;;;0.21;100.00;102539.16;1728743;82;21236;-89
2020/12/20 13:22:53;;;;;;;46.88;28.00;;;;;;;0.21;100.00;102539.16;1727013;81;21255;-89
2020/12/20 13:25:21;;;;;;;41.95;24.75;;;;;;;0.21;100.00;102535.31;1722966;82;21283;-89
2020/12/20 13:27:49;;;;;;;47.58;26.25;;;;;;;0.23;100.00;102542.59;1734123;81;21422;-89
2020/12/20 13:30:18;;;;;;;41.68;24.40;;;;;;;0.22;100.00;102544.27;1732701;82;21266;-89
2020/12/20 13:32:46;;;;;;;50.78;27.52;;;;;;;0.22;100.00;102544.27;1725890;81;21157;-91
2020/12/20 13:35:19;;;;;;;46.35;25.85;;;;;;;0.23;100.00;102542.59;1730372;82;21309;-90
2020/12/20 13:37:51;;;;;;;37.85;20.90;;;;;;;0.23;100.00;102543.42;1746284;81;21195;-88
2020/12/20 13:40:25;;;;;;;45.80;23.92;;;;;;;0.24;100.00;102541.73;1738762;80;21307;-90
2020/12/20 13:47:43;;;;;;;44.65;24.85;;;;;;;0.22;100.00;102544.27;1712472;83;21257;-90
2020/12/20 13:54:50;;;;;;;43.38;24.65;;;;;;;0.15;100.00;102542.17;1712308;81;21255;-90
2020/12/20 13:57:55;;;;;;;37.08;21.90;;;;;;;0.11;100.00;102541.72;1710383;83;21199;-90
2020/12/20 14:01:09;;;;;;;45.85;25.48;;;;;;;0.11;100.00;102542.17;1712113;82;21138;-90
2020/12/20 14:03:38;;;;;;;44.15;24.98;;;;;;;0.13;100.00;102542.99;1712356;83;21130;-91
2020/12/20 14:06:06;;;;;;;52.27;29.40;;;;;;;0.16;100.00;102543.00;1688659;84;21408;-91
2020/12/20 14:08:34;;;;;;;45.48;26.20;;;;;;;0.16;100.00;102543.00;1710393;83;21296;-91
2020/12/20 14:11:03;;;;;;;46.35;26.20;;;;;;;0.15;100.00;102547.70;1710667;83;21843;-89
2020/12/20 14:13:31;;;;;;;43.42;23.83;;;;;;;0.13;100.00;102548.12;1713444;82;21609;-89
2020/12/20 14:16:16;;;;;;;46.68;24.25;;;;;;;0.12;100.00;102543.44;1709835;83;21133;-90
2020/12/20 14:18:44;;;;;;;45.33;25.35;;;;;;;0.15;100.00;102547.70;1676991;84;21268;-88
2020/12/20 14:21:37;;;;;;;49.18;27.15;;;;;;;0.15;100.00;102546.42;1697364;83;21119;-89
2020/12/20 14:24:22;;;;;;;45.58;25.17;;;;;;;0.15;100.00;102547.29;1705202;82;22231;-90
2020/12/20 14:26:54;;;;;;;48.08;26.80;;;;;;;0.15;100.00;102556.26;1681124;84;21213;-90
2020/12/20 14:29:23;;;;;;;48.10;26.12;;;;;;;0.16;100.00;102545.57;1709412;83;21066;-89
2020/12/20 14:31:51;;;;;;;52.70;25.23;;;;;;;0.16;100.00;102549.41;1670790;83;21199;-89
2020/12/20 14:34:21;;;;;;;56.42;25.48;;;;;;;0.17;100.00;102546.41;1657101;86;21643;-90
2020/12/20 14:40:30;;;;;;;65.85;25.15;;;;;;;0.23;100.00;102549.83;1711720;81;21170;-89
2020/12/20 14:43:34;;;;;;;53.33;27.00;;;;;;;0.24;100.00;102551.98;1713346;83;21177;-89
2020/12/20 14:46:23;;;;;;;50.33;25.60;;;;;;;0.23;100.00;102554.95;1710761;83;21146;-90
2020/12/20 14:48:52;;;;;;;55.00;29.12;;;;;;;0.22;100.00;102546.84;1712626;83;21314;-89
2020/12/20 14:51:34;;;;;;;57.35;29.92;;;;;;;0.25;100.00;102553.25;1708366;83;21360;-89
2020/12/20 14:54:02;;;;;;;54.00;27.77;;;;;;;0.29;100.00;102556.67;1707614;83;21253;-89
2020/12/20 14:56:52;;;;;;;57.43;28.12;;;;;;;0.33;100.00;102559.63;1679837;83;21206;-89
2020/12/20 14:59:21;;;;;;;46.92;26.87;;;;;;;0.35;100.00;102557.09;1660078;84;21521;-89
2020/12/20 15:02:18;;;;;;;52.40;26.82;;;;;;;0.40;100.00;102563.89;1717202;83;21133;-89
2020/12/20 15:04:59;;;;;;;51.88;28.38;;;;;;;0.42;100.00;102565.20;1711191;82;21380;-88
2020/12/20 15:08:06;;;;;;;53.35;29.80;;;;;;;0.45;100.00;102569.02;1683926;84;21208;-89
2020/12/20 15:10:55;;;;;;;59.85;30.30;;;;;;;0.45;100.00;102569.02;1708363;83;21149;-89
2020/12/20 15:13:23;;;;;;;59.30;31.00;;;;;;;0.45;100.00;102568.61;1715475;83;21208;-89
2020/12/20 15:15:51;;;;;;;49.95;28.32;;;;;;;0.49;100.00;102568.59;1676938;84;21163;-89
2020/12/20 15:22:32;;;;;;;52.95;28.42;;;;;;;0.48;100.00;102560.05;1714001;83;21601;-89
2020/12/20 15:25:00;;;;;;;56.83;29.90;;;;;;;0.46;100.00;102560.48;1680857;84;21509;-89
2020/12/20 15:27:29;;;;;;;57.55;30.92;;;;;;;0.40;100.00;102566.91;1683984;83;21149;-89
2020/12/20 15:30:05;;;;;;;56.55;31.42;;;;;;;0.38;100.00;102567.33;1685110;84;21238;-90
2020/12/20 15:32:33;;;;;;;57.60;30.37;;;;;;;0.38;100.00;102577.17;1683141;84;21352;-89
2020/12/20 15:35:01;;;;;;;56.92;30.92;;;;;;;0.38;100.00;102575.02;1684720;85;21609;-89
2020/12/20 15:37:59;;;;;;;55.90;28.42;;;;;;;0.41;100.00;102575.02;1682752;84;21179;-89
2020/12/20 15:40:40;;;;;;;56.45;31.12;;;;;;;0.41;100.00;102577.59;1643123;86;21169;-89
2020/12/20 15:43:08;;;;;;;53.75;29.15;;;;;;;0.41;100.00;102577.59;1646129;85;21213;-89
2020/12/20 15:45:36;;;;;;;49.05;28.87;;;;;;;0.39;100.00;102575.44;1645805;86;21199;-89
2020/12/20 15:48:05;;;;;;;59.95;32.03;;;;;;;0.37;100.00;102578.02;1644664;86;21595;-89
2020/12/20 15:50:33;;;;;;;53.10;31.12;;;;;;;0.34;100.00;102579.29;1644794;86;21635;-89
2020/12/20 15:53:01;;;;;;;54.18;30.08;;;;;;;0.35;100.00;102576.31;1644489;86;21213;-89
2020/12/20 15:55:29;;;;;;;52.25;29.82;;;;;;;0.31;100.00;102581.44;1645013;86;21108;-89
2020/12/20 15:57:57;;;;;;;55.65;30.85;;;;;;;0.33;100.00;102579.30;1646080;86;21395;-89
2020/12/20 16:00:25;;;;;;;54.90;31.95;;;;;;;0.31;100.00;102582.72;1643493;86;21517;-89
2020/12/20 16:02:55;;;;;;;58.78;36.17;;;;;;;0.29;100.00;102581.85;1644272;86;21178;-89
2020/12/20 16:05:23;;;;;;;119.15;65.17;;;;;;;0.28;100.00;102586.55;1648846;86;21496;-89
2020/12/20 16:07:51;;;;;;;144.00;83.40;;;;;;;0.28;100.00;102590.39;1645676;86;21147;-89
2020/12/20 16:10:44;;;;;;;178.10;100.18;;;;;;;0.26;100.00;102592.13;1647004;86;21529;-89
2020/12/20 16:13:19;;;;;;;140.15;81.15;;;;;;;0.22;100.00;102587.84;1655478;86;21260;-89
2020/12/20 16:19:22;;;;;;;64.90;38.45;;;;;;;0.26;100.00;102588.69;1706383;83;21231;-89
2020/12/20 16:22:04;;;;;;;53.52;32.15;;;;;;;0.25;100.00;102592.10;1679232;84;21163;-89
2020/12/20 16:24:39;;;;;;;;;;;;;;;0.23;100.00;102589.55;1637389;85;21666;-89
2020/12/20 16:27:49;;;;;;;52.65;29.95;;;;;;;0.22;100.00;102590.40;1714693;82;20506;-89
2020/12/20 16:30:40;;;;;;;50.05;27.95;;;;;;;0.23;100.00;102589.55;1684574;84;21175;-89
2020/12/20 16:33:49;;;;;;;52.43;28.57;;;;;;;0.22;100.00;102594.69;1714195;82;21382;-89
2020/12/20 16:36:20;;;;;;;51.37;29.25;;;;;;;0.19;100.00;102593.39;1709473;83;21459;-89
2020/12/20 16:38:48;;;;;;;53.08;29.82;;;;;;;0.21;100.00;102589.97;1709997;83;22134;-89
2020/12/20 16:41:17;;;;;;;51.60;29.35;;;;;;;0.20;100.00;102588.25;1678846;84;21198;-89
2020/12/20 16:43:46;;;;;;;53.35;31.00;;;;;;;0.19;100.00;102590.42;1656950;86;21207;-89
2020/12/20 16:46:14;;;;;;;50.55;28.92;;;;;;;0.17;100.00;102596.37;1708752;83;21235;-89
2020/12/20 16:48:43;;;;;;;48.38;27.80;;;;;;;0.13;100.00;102593.83;1707190;82;21190;-89
2020/12/20 16:51:11;;;;;;;49.90;26.93;;;;;;;0.10;100.00;102587.85;1713107;83;21276;-89
2020/12/20 16:53:41;;;;;;;51.23;27.50;;;;;;;0.06;100.00;102595.09;1680501;84;21491;-89
2020/12/20 16:56:12;;;;;;;43.30;25.40;;;;;;;0.03;100.00;102594.67;1663894;84;21266;-90
2020/12/20 16:58:40;;;;;;;50.45;27.17;;;;;;;-0.01;100.00;102591.25;1713558;81;21161;-90
2020/12/20 17:01:10;;;;;;;54.30;29.45;;;;;;;-0.01;100.00;102588.69;1670819;84;21434;-89
2020/12/20 17:03:40;;;;;;;49.77;27.67;;;;;;;-0.04;100.00;102588.67;1698550;83;21502;-89
2020/12/20 17:06:10;;;;;;;59.67;31.73;;;;;;;-0.07;100.00;102589.09;1679375;84;21159;-89
2020/12/20 17:08:38;;;;;;;49.98;27.17;;;;;;;-0.06;100.00;102585.69;1662003;84;21162;-89
2020/12/20 17:11:09;;;;;;;47.83;26.70;;;;;;;-0.06;100.00;102590.41;1661757;85;21167;-89
2020/12/20 17:13:38;;;;;;;50.45;26.87;;;;;;;-0.05;100.00;102588.68;1655245;86;21618;-89
2020/12/20 17:16:10;;;;;;;41.15;22.60;;;;;;;-0.02;100.00;102593.38;1713132;83;22432;-89
2020/12/20 17:18:39;;;;;;;49.25;25.97;;;;;;;-0.03;100.00;102592.95;1678225;84;21182;-89
2020/12/20 17:21:17;;;;;;;42.53;24.37;;;;;;;-0.03;100.00;102590.39;1710394;83;21181;-89
2020/12/20 17:28:14;;;;;;;43.90;23.05;;;;;;;0.03;100.00;102602.35;1826094;77;22481;-88
2020/12/20 17:30:43;;;;;;;42.78;22.80;;;;;;;-0.04;100.00;102600.64;1754793;81;21236;-88
2020/12/20 17:33:12;;;;;;;42.98;22.07;;;;;;;-0.08;100.00;102603.63;1758169;81;21370;-89
2020/12/20 17:35:43;;;;;;;43.08;22.45;;;;;;;-0.06;100.00;102600.65;1760313;80;21211;-88
2020/12/20 17:38:18;;;;;;;41.47;23.10;;;;;;;-0.04;100.00;102605.33;1792510;79;22080;-88
2020/12/20 17:40:46;;;;;;;41.95;22.65;;;;;;;-0.05;100.00;102607.48;1782518;79;21119;-88
2020/12/20 17:47:05;;;;;;;46.10;23.80;;;;;;;-0.08;100.00;102603.63;1780921;79;21368;-88
2020/12/20 17:53:07;;;;;;;44.45;23.45;;;;;;;-0.08;100.00;102611.31;1772041;81;21055;-88
2020/12/20 18:22:54;;;;;;;38.23;20.68;;;;;;;-0.77;100.00;102618.78;1762143;81;21463;-89
2020/12/20 18:25:50;;;;;;;40.75;21.20;;;;;;;-0.80;100.00;102629.42;1784735;79;21159;-89
2020/12/20 18:36:42;;;;;;;40.92;21.85;;;;;;;-0.93;100.00;102631.50;1769360;81;21451;-90
2020/12/20 18:42:40;;;;;;;40.85;21.12;;;;;;;-1.06;100.00;102633.13;1768697;80;21167;-90
2020/12/20 18:48:40;;;;;;;37.83;20.43;;;;;;;-1.13;100.00;102631.38;1789869;79;21159;-89
2020/12/20 18:51:09;;;;;;;47.35;23.77;;;;;;;-1.19;100.00;102633.91;1800313;79;21147;-89
2020/12/20 18:54:12;;;;;;;41.95;22.15;;;;;;;-1.24;100.00;102636.87;1800343;79;21373;-89
2020/12/20 19:01:07;;;;;;;43.20;23.18;;;;;;;-1.36;100.00;102633.37;1785495;79;21111;-90
2020/12/20 19:11:52;;;;;;;38.50;22.00;;;;;;;-1.53;100.00;102633.66;1800402;79;21184;-91
2020/12/20 19:22:42;;;;;;;35.85;21.02;;;;;;;-1.69;100.00;102627.58;1721543;82;21318;-89
2020/12/20 19:29:14;;;;;;;37.05;20.88;;;;;;;-1.75;100.00;102625.83;1782638;79;21551;-91
2020/12/20 19:31:49;;;;;;;34.55;20.25;;;;;;;-1.78;100.00;102620.67;1783024;80;21092;-90
2020/12/20 19:38:10;;;;;;;40.92;23.87;;;;;;;-1.77;100.00;102621.98;1792240;79;21108;-89
2020/12/20 19:40:38;;;;;;;37.85;21.00;;;;;;;-1.73;100.00;102622.87;1785676;79;21120;-90
2020/12/20 22:34:45;;;;;;;8.98;5.62;;;;;;;-1.54;100.00;102662.20;1745487;78;21156;-90
2020/12/20 22:45:26;;;;;;;7.87;5.60;;;;;;;-1.62;100.00;102661.28;1768005;81;21184;-90
2020/12/20 22:52:02;;;;;;;7.40;3.87;;;;;;;-1.72;100.00;102659.47;1792225;79;21159;-90
2020/12/20 23:02:46;;;;;;;5.67;3.83;;;;;;;-2.04;97.75;102665.97;1767863;81;21152;-90
2020/12/20 23:05:43;;;;;;;6.30;3.70;;;;;;;-2.15;97.86;102669.69;1770408;80;21489;-90
2020/12/20 23:19:30;;;;;;;6.53;4.60;;;;;;;-2.19;98.72;102675.61;1781171;79;21315;-90
2020/12/20 23:26:23;;;;;;;6.45;4.67;;;;;;;-2.21;98.76;102682.39;1776889;80;21454;-90
2020/12/20 23:33:14;;;;;;;8.70;5.85;;;;;;;-2.27;97.93;102681.05;1778184;80;21123;-91
2020/12/20 23:40:05;;;;;;;7.03;4.83;;;;;;;-2.28;98.30;102682.73;1776904;80;21047;-90
2020/12/20 23:46:59;;;;;;;7.20;4.62;;;;;;;-2.26;98.47;102700.63;1776799;80;21136;-90
2020/12/20 23:54:02;;;;;;;7.50;5.25;;;;;;;-2.24;98.53;102698.53;1776868;80;21112;-90
